sensor_id;sensor_type;location;lat;lon;timestamp;temperature;humidity
1992;DHT22;997;48.448;8.924;2022-09-09T03:02:58;16.90;99.90
1992;DHT22;997;48.448;8.924;2022-09-09T03:05:24;16.90;99.90
1992;DHT22;997;48.448;8.924;2022-09-09T03:07:50;16.90;99.90
1992;DHT22;997;48.448;8.924;2022-09-09T03:10:16;16.80;99.90
1992;DHT22;997;48.448;8.924;2022-09-09T03:12:42;16.70;99.90
1992;DHT22;997;48.448;8.924;2022-09-09T03:15:09;16.60;99.90
1992;DHT22;997;48.448;8.924;2022-09-09T03:17:35;16.50;99.90
1992;DHT22;997;48.448;8.924;2022-09-09T03:20:05;16.40;99.90
1992;DHT22;997;48.448;8.924;2022-09-09T03:22:31;16.20;99.90
1992;DHT22;997;48.448;8.924;2022-09-09T03:24:56;16.10;99.90
1992;DHT22;997;48.448;8.924;2022-09-09T03:27:22;16.10;99.90
1992;DHT22;997;48.448;8.924;2022-09-09T03:29:48;16.10;99.90
1992;DHT22;997;48.448;8.924;2022-09-09T03:32:16;16.00;99.90
1992;DHT22;997;48.448;8.924;2022-09-09T03:34:43;16.00;99.90
1992;DHT22;997;48.448;8.924;2022-09-09T03:37:08;16.00;99.90
1992;DHT22;997;48.448;8.924;2022-09-09T03:39:34;15.90;99.90
1992;DHT22;997;48.448;8.924;2022-09-09T03:42:00;15.80;99.90
1992;DHT22;997;48.448;8.924;2022-09-09T03:44:29;15.60;99.90
1992;DHT22;997;48.448;8.924;2022-09-09T03:46:55;15.50;99.90
1992;DHT22;997;48.448;8.924;2022-09-09T03:49:21;15.40;99.90
1992;DHT22;997;48.448;8.924;2022-09-09T03:51:48;15.40;99.90
1992;DHT22;997;48.448;8.924;2022-09-09T03:54:13;15.40;99.90
1992;DHT22;997;48.448;8.924;2022-09-09T03:56:39;15.40;99.90
1992;DHT22;997;48.448;8.924;2022-09-09T03:59:07;15.40;99.90
1992;DHT22;997;48.448;8.924;2022-09-09T04:01:34;15.40;99.90
1992;DHT22;997;48.448;8.924;2022-09-09T04:03:59;15.50;99.90
1992;DHT22;997;48.448;8.924;2022-09-09T04:06:27;15.50;99.90
1992;DHT22;997;48.448;8.924;2022-09-09T04:08:54;15.50;99.90
1992;DHT22;997;48.448;8.924;2022-09-09T04:11:20;15.50;99.90
1992;DHT22;997;48.448;8.924;2022-09-09T04:13:47;15.50;99.90
1992;DHT22;997;48.448;8.924;2022-09-09T04:16:13;15.50;99.90
1992;DHT22;997;48.448;8.924;2022-09-09T04:18:38;15.50;99.90
1992;DHT22;997;48.448;8.924;2022-09-09T04:21:05;15.50;99.90
1992;DHT22;997;48.448;8.924;2022-09-09T04:23:32;15.60;99.90
1992;DHT22;997;48.448;8.924;2022-09-09T04:25:59;15.60;99.90
1992;DHT22;997;48.448;8.924;2022-09-09T04:28:29;15.60;99.90
1992;DHT22;997;48.448;8.924;2022-09-09T04:30:55;15.70;99.90
1992;DHT22;997;48.448;8.924;2022-09-09T04:33:24;15.60;99.90
1992;DHT22;997;48.448;8.924;2022-09-09T04:35:52;15.60;99.90
1992;DHT22;997;48.448;8.924;2022-09-09T04:38:20;15.60;99.90
1992;DHT22;997;48.448;8.924;2022-09-09T04:40:48;15.50;99.90
1992;DHT22;997;48.448;8.924;2022-09-09T04:43:15;15.50;99.90
1992;DHT22;997;48.448;8.924;2022-09-09T04:45:42;15.40;99.90
1992;DHT22;997;48.448;8.924;2022-09-09T04:48:08;15.40;99.90
1992;DHT22;997;48.448;8.924;2022-09-09T04:50:35;15.40;99.90
1992;DHT22;997;48.448;8.924;2022-09-09T04:53:04;15.50;99.90
1992;DHT22;997;48.448;8.924;2022-09-09T04:55:30;15.40;99.90
1992;DHT22;997;48.448;8.924;2022-09-09T04:57:56;15.50;99.90
1992;DHT22;997;48.448;8.924;2022-09-09T05:00:23;15.50;99.90
1992;DHT22;997;48.448;8.924;2022-09-09T05:02:49;15.50;99.90
1992;DHT22;997;48.448;8.924;2022-09-09T05:05:15;15.60;99.90
1992;DHT22;997;48.448;8.924;2022-09-09T05:07:42;15.50;99.90
1992;DHT22;997;48.448;8.924;2022-09-09T05:10:09;15.50;99.90
1992;DHT22;997;48.448;8.924;2022-09-09T05:12:35;15.60;99.90
1992;DHT22;997;48.448;8.924;2022-09-09T05:15:01;15.60;99.90
1992;DHT22;997;48.448;8.924;2022-09-09T05:17:27;15.70;99.90
1992;DHT22;997;48.448;8.924;2022-09-09T05:19:53;15.70;99.90
1992;DHT22;997;48.448;8.924;2022-09-09T05:22:22;15.70;99.90
1992;DHT22;997;48.448;8.924;2022-09-09T05:24:52;15.60;99.90
1992;DHT22;997;48.448;8.924;2022-09-09T05:27:18;15.60;99.90
1992;DHT22;997;48.448;8.924;2022-09-09T05:29:45;15.60;99.90
1992;DHT22;997;48.448;8.924;2022-09-09T05:32:11;15.70;99.90
1992;DHT22;997;48.448;8.924;2022-09-09T05:34:37;15.80;99.90
1992;DHT22;997;48.448;8.924;2022-09-09T05:37:05;15.80;99.90
1992;DHT22;997;48.448;8.924;2022-09-09T05:39:33;15.80;99.90
1992;DHT22;997;48.448;8.924;2022-09-09T05:41:59;15.90;99.90
1992;DHT22;997;48.448;8.924;2022-09-09T05:44:25;15.80;99.90
1992;DHT22;997;48.448;8.924;2022-09-09T05:46:53;15.70;99.90
1992;DHT22;997;48.448;8.924;2022-09-09T05:49:19;15.60;99.90
1992;DHT22;997;48.448;8.924;2022-09-09T05:51:45;15.50;99.90
1992;DHT22;997;48.448;8.924;2022-09-09T05:54:11;15.50;99.90
1992;DHT22;997;48.448;8.924;2022-09-09T05:56:40;15.60;99.90
1992;DHT22;997;48.448;8.924;2022-09-09T05:59:06;15.60;99.90
1992;DHT22;997;48.448;8.924;2022-09-09T06:01:34;15.60;99.90
1992;DHT22;997;48.448;8.924;2022-09-09T06:04:00;15.70;99.90
1992;DHT22;997;48.448;8.924;2022-09-09T06:06:30;15.80;99.90
1992;DHT22;997;48.448;8.924;2022-09-09T06:08:57;15.70;99.90
1992;DHT22;997;48.448;8.924;2022-09-09T06:11:25;15.90;99.90
1992;DHT22;997;48.448;8.924;2022-09-09T06:13:52;16.00;99.90
1992;DHT22;997;48.448;8.924;2022-09-09T06:16:21;16.10;99.90
1992;DHT22;997;48.448;8.924;2022-09-09T06:18:49;16.20;99.90
1992;DHT22;997;48.448;8.924;2022-09-09T06:21:18;16.30;99.90
1992;DHT22;997;48.448;8.924;2022-09-09T06:23:44;16.40;99.90
1992;DHT22;997;48.448;8.924;2022-09-09T06:26:22;16.50;99.90
1992;DHT22;997;48.448;8.924;2022-09-09T06:28:50;16.60;99.90
1992;DHT22;997;48.448;8.924;2022-09-09T06:31:20;16.70;99.90
1992;DHT22;997;48.448;8.924;2022-09-09T06:33:48;16.90;99.90
1992;DHT22;997;48.448;8.924;2022-09-09T06:36:26;17.00;99.90
1992;DHT22;997;48.448;8.924;2022-09-09T06:38:53;17.10;99.90
1992;DHT22;997;48.448;8.924;2022-09-09T06:41:20;17.10;99.90
1992;DHT22;997;48.448;8.924;2022-09-09T06:43:47;17.20;99.90
1992;DHT22;997;48.448;8.924;2022-09-09T06:48:40;17.20;99.90
1992;DHT22;997;48.448;8.924;2022-09-09T06:51:08;17.20;99.90
1992;DHT22;997;48.448;8.924;2022-09-09T06:53:35;17.20;99.90
1992;DHT22;997;48.448;8.924;2022-09-09T07:01:06;17.30;99.90
1992;DHT22;997;48.448;8.924;2022-09-09T07:03:33;17.20;99.90
1992;DHT22;997;48.448;8.924;2022-09-09T07:05:59;17.40;99.90
1992;DHT22;997;48.448;8.924;2022-09-09T07:08:25;17.40;99.90
1992;DHT22;997;48.448;8.924;2022-09-09T07:10:51;17.30;99.90
1992;DHT22;997;48.448;8.924;2022-09-09T07:13:24;17.40;99.90
1992;DHT22;997;48.448;8.924;2022-09-09T07:15:51;17.50;99.90
1992;DHT22;997;48.448;8.924;2022-09-09T07:18:17;17.50;99.90
1992;DHT22;997;48.448;8.924;2022-09-09T07:20:42;17.50;99.90
1992;DHT22;997;48.448;8.924;2022-09-09T07:23:08;17.60;99.90
1992;DHT22;997;48.448;8.924;2022-09-09T07:25:34;17.50;99.90
1992;DHT22;997;48.448;8.924;2022-09-09T07:27:59;17.50;99.90
1992;DHT22;997;48.448;8.924;2022-09-09T07:30:25;17.50;99.90
1992;DHT22;997;48.448;8.924;2022-09-09T07:32:52;17.60;99.90
1992;DHT22;997;48.448;8.924;2022-09-09T07:35:17;17.70;99.90
1992;DHT22;997;48.448;8.924;2022-09-09T07:37:43;17.60;99.90
1992;DHT22;997;48.448;8.924;2022-09-09T07:40:10;17.60;99.90
1992;DHT22;997;48.448;8.924;2022-09-09T07:42:36;17.70;99.90
1992;DHT22;997;48.448;8.924;2022-09-09T07:45:03;17.60;99.90
1992;DHT22;997;48.448;8.924;2022-09-09T07:47:29;17.70;99.90
1992;DHT22;997;48.448;8.924;2022-09-09T07:49:55;17.80;99.90
1992;DHT22;997;48.448;8.924;2022-09-09T07:52:21;17.90;99.90
1992;DHT22;997;48.448;8.924;2022-09-09T07:54:47;18.00;99.90
1992;DHT22;997;48.448;8.924;2022-09-09T07:57:13;18.00;99.90
1992;DHT22;997;48.448;8.924;2022-09-09T07:59:38;18.00;99.90
1992;DHT22;997;48.448;8.924;2022-09-09T08:02:05;18.00;99.90
1992;DHT22;997;48.448;8.924;2022-09-09T08:04:31;18.00;99.90
1992;DHT22;997;48.448;8.924;2022-09-09T08:06:59;17.90;99.90
1992;DHT22;997;48.448;8.924;2022-09-09T08:09:27;18.00;99.90
1992;DHT22;997;48.448;8.924;2022-09-09T08:11:55;18.00;99.90
1992;DHT22;997;48.448;8.924;2022-09-09T08:14:22;18.10;99.90
1992;DHT22;997;48.448;8.924;2022-09-09T08:16:49;18.10;99.90
1992;DHT22;997;48.448;8.924;2022-09-09T08:19:15;18.30;99.90
1992;DHT22;997;48.448;8.924;2022-09-09T08:21:43;18.40;99.90
1992;DHT22;997;48.448;8.924;2022-09-09T08:24:10;18.50;99.90
1992;DHT22;997;48.448;8.924;2022-09-09T08:26:40;18.60;99.90
1992;DHT22;997;48.448;8.924;2022-09-09T08:29:08;18.50;99.90
1992;DHT22;997;48.448;8.924;2022-09-09T08:31:38;18.60;99.90
1992;DHT22;997;48.448;8.924;2022-09-09T08:34:04;18.60;99.90
1992;DHT22;997;48.448;8.924;2022-09-09T08:36:33;18.50;99.90
1992;DHT22;997;48.448;8.924;2022-09-09T08:39:00;18.60;99.90
1992;DHT22;997;48.448;8.924;2022-09-09T08:44:02;18.50;99.90
1992;DHT22;997;48.448;8.924;2022-09-09T08:46:42;18.40;99.90
1992;DHT22;997;48.448;8.924;2022-09-09T08:49:37;18.30;99.90
1992;DHT22;997;48.448;8.924;2022-09-09T08:52:13;18.40;99.90
1992;DHT22;997;48.448;8.924;2022-09-09T08:54:41;18.50;99.90
1992;DHT22;997;48.448;8.924;2022-09-09T08:57:14;18.60;99.90
1992;DHT22;997;48.448;8.924;2022-09-09T08:59:43;18.80;99.90
1992;DHT22;997;48.448;8.924;2022-09-09T09:10:50;19.50;99.90
1992;DHT22;997;48.448;8.924;2022-09-09T09:13:43;19.50;99.90
1992;DHT22;997;48.448;8.924;2022-09-09T09:16:29;19.70;99.90
1992;DHT22;997;48.448;8.924;2022-09-09T09:18:58;19.80;99.90
1992;DHT22;997;48.448;8.924;2022-09-09T09:24:44;20.10;99.90
1992;DHT22;997;48.448;8.924;2022-09-09T09:27:15;20.20;99.90
1992;DHT22;997;48.448;8.924;2022-09-09T09:29:42;20.20;99.90
1992;DHT22;997;48.448;8.924;2022-09-09T09:32:16;20.30;99.90
1992;DHT22;997;48.448;8.924;2022-09-09T09:34:50;20.30;99.90
1992;DHT22;997;48.448;8.924;2022-09-09T09:37:32;20.30;99.90
1992;DHT22;997;48.448;8.924;2022-09-09T09:45:41;20.40;99.90
1992;DHT22;997;48.448;8.924;2022-09-09T09:48:12;20.60;99.90
1992;DHT22;997;48.448;8.924;2022-09-09T09:50:49;20.80;99.90
1992;DHT22;997;48.448;8.924;2022-09-09T09:53:25;20.90;99.90
1992;DHT22;997;48.448;8.924;2022-09-09T09:56:08;20.90;99.90
1992;DHT22;997;48.448;8.924;2022-09-09T10:01:21;21.10;99.90
1992;DHT22;997;48.448;8.924;2022-09-09T10:03:52;21.20;99.90
1992;DHT22;997;48.448;8.924;2022-09-09T10:06:32;21.10;99.90
1992;DHT22;997;48.448;8.924;2022-09-09T10:08:59;21.10;99.90
1992;DHT22;997;48.448;8.924;2022-09-09T10:14:34;21.10;99.90
1992;DHT22;997;48.448;8.924;2022-09-09T10:17:26;21.30;99.90
1992;DHT22;997;48.448;8.924;2022-09-09T10:22:35;21.40;99.90
1992;DHT22;997;48.448;8.924;2022-09-09T10:31:34;21.50;99.90
1992;DHT22;997;48.448;8.924;2022-09-09T10:34:12;21.70;99.90
1992;DHT22;997;48.448;8.924;2022-09-09T10:36:46;21.90;99.90
1992;DHT22;997;48.448;8.924;2022-09-09T10:42:14;22.20;99.90
1992;DHT22;997;48.448;8.924;2022-09-09T10:45:09;22.40;99.90
1992;DHT22;997;48.448;8.924;2022-09-09T10:56:04;22.20;99.90
1992;DHT22;997;48.448;8.924;2022-09-09T10:58:52;22.20;99.90
1992;DHT22;997;48.448;8.924;2022-09-09T11:01:47;22.40;99.90
1992;DHT22;997;48.448;8.924;2022-09-09T11:04:23;22.80;99.90
1992;DHT22;997;48.448;8.924;2022-09-09T11:06:54;22.80;99.90
1992;DHT22;997;48.448;8.924;2022-09-09T11:09:27;22.60;99.90
1992;DHT22;997;48.448;8.924;2022-09-09T11:11:56;21.80;99.90
1992;DHT22;997;48.448;8.924;2022-09-09T11:17:14;20.70;99.90
1992;DHT22;997;48.448;8.924;2022-09-09T11:19:43;20.40;99.90
1992;DHT22;997;48.448;8.924;2022-09-09T11:25:04;20.30;99.90
1992;DHT22;997;48.448;8.924;2022-09-09T11:41:34;21.00;99.90
1992;DHT22;997;48.448;8.924;2022-09-09T11:44:17;21.00;99.90
1992;DHT22;997;48.448;8.924;2022-09-09T11:46:46;21.30;99.90
1992;DHT22;997;48.448;8.924;2022-09-09T11:52:12;21.70;99.90
1992;DHT22;997;48.448;8.924;2022-09-09T11:54:48;21.60;99.90
1992;DHT22;997;48.448;8.924;2022-09-09T11:57:25;21.70;99.90
1992;DHT22;997;48.448;8.924;2022-09-09T11:59:52;21.80;99.90
1992;DHT22;997;48.448;8.924;2022-09-09T12:02:26;21.80;99.90
1992;DHT22;997;48.448;8.924;2022-09-09T12:05:08;22.00;99.90
1992;DHT22;997;48.448;8.924;2022-09-09T12:07:53;22.10;99.90
1992;DHT22;997;48.448;8.924;2022-09-09T12:10:27;22.20;99.90
1992;DHT22;997;48.448;8.924;2022-09-09T12:12:54;22.40;99.90
1992;DHT22;997;48.448;8.924;2022-09-09T12:15:26;22.40;99.90
1992;DHT22;997;48.448;8.924;2022-09-09T12:17:58;22.30;99.90
1992;DHT22;997;48.448;8.924;2022-09-09T12:20:32;22.10;99.90
1992;DHT22;997;48.448;8.924;2022-09-09T12:34:06;21.00;99.90
1992;DHT22;997;48.448;8.924;2022-09-09T12:36:35;21.00;99.90
1992;DHT22;997;48.448;8.924;2022-09-09T12:39:29;20.90;99.90
1992;DHT22;997;48.448;8.924;2022-09-09T12:41:56;21.00;99.90
1992;DHT22;997;48.448;8.924;2022-09-09T12:44:23;21.20;99.90
1992;DHT22;997;48.448;8.924;2022-09-09T12:46:50;21.20;99.90
1992;DHT22;997;48.448;8.924;2022-09-09T12:49:36;21.50;99.90
1992;DHT22;997;48.448;8.924;2022-09-09T12:52:28;21.70;99.90
1992;DHT22;997;48.448;8.924;2022-09-09T12:54:57;21.80;99.90
1992;DHT22;997;48.448;8.924;2022-09-09T12:57:24;21.80;99.90
1992;DHT22;997;48.448;8.924;2022-09-09T12:59:51;21.80;99.90
1992;DHT22;997;48.448;8.924;2022-09-09T13:02:25;21.80;99.90
1992;DHT22;997;48.448;8.924;2022-09-09T13:04:52;21.70;99.90
1992;DHT22;997;48.448;8.924;2022-09-09T13:07:20;21.70;99.90
1992;DHT22;997;48.448;8.924;2022-09-09T13:09:48;21.80;99.90
1992;DHT22;997;48.448;8.924;2022-09-09T13:12:18;21.90;99.90
1992;DHT22;997;48.448;8.924;2022-09-09T13:14:47;21.90;99.90
1992;DHT22;997;48.448;8.924;2022-09-09T13:17:23;21.90;99.90
1992;DHT22;997;48.448;8.924;2022-09-09T13:19:51;21.80;99.90
1992;DHT22;997;48.448;8.924;2022-09-09T13:22:35;21.90;99.90
1992;DHT22;997;48.448;8.924;2022-09-09T13:25:06;22.10;99.90
1992;DHT22;997;48.448;8.924;2022-09-09T13:27:35;22.50;99.90
1992;DHT22;997;48.448;8.924;2022-09-09T13:36:08;22.80;99.90
1992;DHT22;997;48.448;8.924;2022-09-09T13:38:53;22.80;99.90
1992;DHT22;997;48.448;8.924;2022-09-09T13:41:21;22.60;99.90
1992;DHT22;997;48.448;8.924;2022-09-09T13:43:50;22.70;99.90
1992;DHT22;997;48.448;8.924;2022-09-09T13:46:46;23.00;99.90
1992;DHT22;997;48.448;8.924;2022-09-09T13:51:43;23.40;99.90
1992;DHT22;997;48.448;8.924;2022-09-09T13:54:14;23.40;99.90
1992;DHT22;997;48.448;8.924;2022-09-09T13:56:41;23.50;99.90
1992;DHT22;997;48.448;8.924;2022-09-09T13:59:18;23.20;99.90
1992;DHT22;997;48.448;8.924;2022-09-09T14:01:45;22.90;99.90
1992;DHT22;997;48.448;8.924;2022-09-09T14:04:11;22.70;99.90
1992;DHT22;997;48.448;8.924;2022-09-09T14:06:38;22.60;99.90
1992;DHT22;997;48.448;8.924;2022-09-09T14:09:11;22.90;99.90
1992;DHT22;997;48.448;8.924;2022-09-09T14:11:37;23.30;99.90
1992;DHT22;997;48.448;8.924;2022-09-09T14:14:02;23.60;99.90
1992;DHT22;997;48.448;8.924;2022-09-09T14:16:28;23.80;99.90
1992;DHT22;997;48.448;8.924;2022-09-09T14:18:54;24.10;99.90
1992;DHT22;997;48.448;8.924;2022-09-09T14:21:25;24.40;99.90
1992;DHT22;997;48.448;8.924;2022-09-09T14:23:52;24.60;99.90
1992;DHT22;997;48.448;8.924;2022-09-09T14:26:19;24.60;99.90
1992;DHT22;997;48.448;8.924;2022-09-09T14:28:47;24.60;99.90
1992;DHT22;997;48.448;8.924;2022-09-09T14:31:13;24.60;99.90
1992;DHT22;997;48.448;8.924;2022-09-09T14:33:40;24.80;99.90
1992;DHT22;997;48.448;8.924;2022-09-09T14:36:06;24.90;99.90
1992;DHT22;997;48.448;8.924;2022-09-09T14:38:34;25.20;99.90
1992;DHT22;997;48.448;8.924;2022-09-09T14:41:06;25.40;99.90
1992;DHT22;997;48.448;8.924;2022-09-09T14:43:32;25.90;99.90
1992;DHT22;997;48.448;8.924;2022-09-09T14:46:05;26.00;99.90
1992;DHT22;997;48.448;8.924;2022-09-09T14:48:32;25.80;99.90
1992;DHT22;997;48.448;8.924;2022-09-09T14:51:11;25.30;99.90
1992;DHT22;997;48.448;8.924;2022-09-09T14:53:39;25.10;99.90
1992;DHT22;997;48.448;8.924;2022-09-09T14:58:33;24.10;99.90
1992;DHT22;997;48.448;8.924;2022-09-09T15:01:13;23.80;99.90
1992;DHT22;997;48.448;8.924;2022-09-09T15:03:40;23.60;99.90
1992;DHT22;997;48.448;8.924;2022-09-09T15:06:07;23.30;99.90
1992;DHT22;997;48.448;8.924;2022-09-09T15:08:38;23.30;99.90
1992;DHT22;997;48.448;8.924;2022-09-09T15:11:05;22.90;99.90
1992;DHT22;997;48.448;8.924;2022-09-09T15:13:32;22.60;99.90
1992;DHT22;997;48.448;8.924;2022-09-09T15:16:04;22.50;99.90
1992;DHT22;997;48.448;8.924;2022-09-09T15:18:31;22.30;99.90
1992;DHT22;997;48.448;8.924;2022-09-09T15:20:59;22.10;99.90
1992;DHT22;997;48.448;8.924;2022-09-09T15:23:25;22.00;99.90
1992;DHT22;997;48.448;8.924;2022-09-09T15:25:52;22.20;99.90
1992;DHT22;997;48.448;8.924;2022-09-09T15:28:18;22.30;99.90
1992;DHT22;997;48.448;8.924;2022-09-09T15:30:48;22.80;99.90
1992;DHT22;997;48.448;8.924;2022-09-09T15:33:13;23.80;99.90
1992;DHT22;997;48.448;8.924;2022-09-09T15:35:39;24.50;99.90
1992;DHT22;997;48.448;8.924;2022-09-09T15:38:05;25.30;98.80
1992;DHT22;997;48.448;8.924;2022-09-09T15:40:31;25.10;97.80
1992;DHT22;997;48.448;8.924;2022-09-09T15:42:59;24.20;97.10
1992;DHT22;997;48.448;8.924;2022-09-09T15:45:25;23.90;98.30
1992;DHT22;997;48.448;8.924;2022-09-09T15:47:52;23.30;98.50
1992;DHT22;997;48.448;8.924;2022-09-09T15:50:18;22.80;99.40
1992;DHT22;997;48.448;8.924;2022-09-09T15:52:43;22.10;99.90
1992;DHT22;997;48.448;8.924;2022-09-09T15:55:10;21.80;99.90
1992;DHT22;997;48.448;8.924;2022-09-09T15:57:35;21.70;99.90
1992;DHT22;997;48.448;8.924;2022-09-09T16:00:03;21.40;99.90
1992;DHT22;997;48.448;8.924;2022-09-09T16:02:30;21.50;99.90
1992;DHT22;997;48.448;8.924;2022-09-09T16:04:56;21.50;99.90
1992;DHT22;997;48.448;8.924;2022-09-09T16:07:23;21.50;99.90
1992;DHT22;997;48.448;8.924;2022-09-09T16:09:48;21.50;99.90
1992;DHT22;997;48.448;8.924;2022-09-09T16:12:17;21.50;99.90
1992;DHT22;997;48.448;8.924;2022-09-09T16:14:42;21.40;99.90
1992;DHT22;997;48.448;8.924;2022-09-09T16:17:08;21.40;99.90
1992;DHT22;997;48.448;8.924;2022-09-09T16:19:34;21.30;99.90
1992;DHT22;997;48.448;8.924;2022-09-09T16:22:00;21.30;99.90
1992;DHT22;997;48.448;8.924;2022-09-09T16:24:26;21.30;99.90
1992;DHT22;997;48.448;8.924;2022-09-09T16:26:53;21.10;99.90
1992;DHT22;997;48.448;8.924;2022-09-09T16:29:20;20.80;99.90
1992;DHT22;997;48.448;8.924;2022-09-09T16:31:53;20.60;99.90
1992;DHT22;997;48.448;8.924;2022-09-09T16:34:19;20.60;99.90
1992;DHT22;997;48.448;8.924;2022-09-09T16:36:46;20.40;99.90
1992;DHT22;997;48.448;8.924;2022-09-09T16:39:17;20.30;99.90
1992;DHT22;997;48.448;8.924;2022-09-09T16:41:45;20.10;99.90
1992;DHT22;997;48.448;8.924;2022-09-09T16:44:12;20.10;99.90
1992;DHT22;997;48.448;8.924;2022-09-09T16:46:40;20.10;99.90
1992;DHT22;997;48.448;8.924;2022-09-09T16:49:09;20.00;99.90
1992;DHT22;997;48.448;8.924;2022-09-09T16:51:38;19.80;99.90
1992;DHT22;997;48.448;8.924;2022-09-09T16:54:06;19.90;99.90
1992;DHT22;997;48.448;8.924;2022-09-09T16:56:34;20.30;99.90
1992;DHT22;997;48.448;8.924;2022-09-09T16:59:07;20.50;99.90
1992;DHT22;997;48.448;8.924;2022-09-09T17:01:36;20.50;99.90
1992;DHT22;997;48.448;8.924;2022-09-09T17:04:08;20.50;99.90
1992;DHT22;997;48.448;8.924;2022-09-09T17:06:35;20.60;99.90
1992;DHT22;997;48.448;8.924;2022-09-09T17:09:05;20.50;99.90
1992;DHT22;997;48.448;8.924;2022-09-09T17:11:31;20.30;99.90
1992;DHT22;997;48.448;8.924;2022-09-09T17:13:57;20.20;99.90
1992;DHT22;997;48.448;8.924;2022-09-09T17:16:25;20.20;99.90
1992;DHT22;997;48.448;8.924;2022-09-09T17:18:53;20.30;99.90
1992;DHT22;997;48.448;8.924;2022-09-09T17:21:21;20.10;99.90
1992;DHT22;997;48.448;8.924;2022-09-09T17:23:47;20.00;99.90
1992;DHT22;997;48.448;8.924;2022-09-09T17:26:19;19.90;99.90
1992;DHT22;997;48.448;8.924;2022-09-09T17:28:45;19.90;99.90
1992;DHT22;997;48.448;8.924;2022-09-09T17:31:13;19.90;99.90
1992;DHT22;997;48.448;8.924;2022-09-09T17:33:42;20.00;99.90
1992;DHT22;997;48.448;8.924;2022-09-09T17:38:37;19.60;99.90
1992;DHT22;997;48.448;8.924;2022-09-09T17:41:07;19.50;99.90
1992;DHT22;997;48.448;8.924;2022-09-09T17:43:34;19.30;99.90
1992;DHT22;997;48.448;8.924;2022-09-09T17:46:13;19.20;99.90
1992;DHT22;997;48.448;8.924;2022-09-09T17:48:39;19.20;99.90
1992;DHT22;997;48.448;8.924;2022-09-09T17:51:08;19.10;99.90
1992;DHT22;997;48.448;8.924;2022-09-09T17:53:39;18.90;99.90
1992;DHT22;997;48.448;8.924;2022-09-09T17:56:06;18.90;99.90
1992;DHT22;997;48.448;8.924;2022-09-09T17:58:34;18.80;99.90
1992;DHT22;997;48.448;8.924;2022-09-09T18:01:05;18.80;99.90
1992;DHT22;997;48.448;8.924;2022-09-09T18:03:36;18.60;99.90
1992;DHT22;997;48.448;8.924;2022-09-09T18:06:04;18.60;99.90
1992;DHT22;997;48.448;8.924;2022-09-09T18:08:31;18.60;99.90
1992;DHT22;997;48.448;8.924;2022-09-09T18:10:57;18.60;99.90
1992;DHT22;997;48.448;8.924;2022-09-09T18:13:23;18.50;99.90
1992;DHT22;997;48.448;8.924;2022-09-09T18:15:49;18.60;99.90
1992;DHT22;997;48.448;8.924;2022-09-09T18:18:14;18.50;99.90
1992;DHT22;997;48.448;8.924;2022-09-09T18:20:40;18.50;99.90
1992;DHT22;997;48.448;8.924;2022-09-09T18:23:06;18.50;99.90
1992;DHT22;997;48.448;8.924;2022-09-09T18:25:38;18.50;99.90
1992;DHT22;997;48.448;8.924;2022-09-09T18:28:04;18.50;99.90
1992;DHT22;997;48.448;8.924;2022-09-09T18:30:30;18.40;99.90
1992;DHT22;997;48.448;8.924;2022-09-09T18:32:56;18.40;99.90
1992;DHT22;997;48.448;8.924;2022-09-09T18:35:23;18.40;99.90
1992;DHT22;997;48.448;8.924;2022-09-09T18:37:48;18.30;99.90
1992;DHT22;997;48.448;8.924;2022-09-09T18:40:14;18.40;99.90
1992;DHT22;997;48.448;8.924;2022-09-09T18:42:40;18.30;99.90
1992;DHT22;997;48.448;8.924;2022-09-09T18:45:06;18.20;99.90
1992;DHT22;997;48.448;8.924;2022-09-09T18:47:32;18.20;99.90
1992;DHT22;997;48.448;8.924;2022-09-09T18:49:59;18.10;99.90
1992;DHT22;997;48.448;8.924;2022-09-09T18:52:24;17.90;99.90
1992;DHT22;997;48.448;8.924;2022-09-09T18:54:50;17.90;99.90
1992;DHT22;997;48.448;8.924;2022-09-09T18:57:17;17.80;99.90
1992;DHT22;997;48.448;8.924;2022-09-09T18:59:43;17.80;99.90
1992;DHT22;997;48.448;8.924;2022-09-09T19:02:09;17.80;99.90
1992;DHT22;997;48.448;8.924;2022-09-09T19:04:36;17.80;99.90
1992;DHT22;997;48.448;8.924;2022-09-09T19:07:02;17.70;99.90
1992;DHT22;997;48.448;8.924;2022-09-09T19:09:29;17.80;99.90
1992;DHT22;997;48.448;8.924;2022-09-09T19:11:57;17.80;99.90
1992;DHT22;997;48.448;8.924;2022-09-09T19:14:24;17.70;99.90
1992;DHT22;997;48.448;8.924;2022-09-09T19:16:50;17.70;99.90
1992;DHT22;997;48.448;8.924;2022-09-09T19:19:21;17.60;99.90
1992;DHT22;997;48.448;8.924;2022-09-09T19:21:47;17.60;99.90
1992;DHT22;997;48.448;8.924;2022-09-09T19:24:17;17.50;99.90
1992;DHT22;997;48.448;8.924;2022-09-09T19:26:48;17.50;99.90
1992;DHT22;997;48.448;8.924;2022-09-09T19:29:22;17.50;99.90
1992;DHT22;997;48.448;8.924;2022-09-09T19:31:49;17.60;99.90
1992;DHT22;997;48.448;8.924;2022-09-09T19:34:15;17.60;99.90
1992;DHT22;997;48.448;8.924;2022-09-09T19:36:41;17.60;99.90
1992;DHT22;997;48.448;8.924;2022-09-09T19:39:08;17.50;99.90
1992;DHT22;997;48.448;8.924;2022-09-09T19:41:34;17.40;99.90
1992;DHT22;997;48.448;8.924;2022-09-09T19:44:03;17.40;99.90
1992;DHT22;997;48.448;8.924;2022-09-09T19:46:33;17.50;99.90
1992;DHT22;997;48.448;8.924;2022-09-09T19:48:59;17.40;99.90
1992;DHT22;997;48.448;8.924;2022-09-09T19:51:27;17.40;99.90
1992;DHT22;997;48.448;8.924;2022-09-09T19:54:02;17.30;99.90
1992;DHT22;997;48.448;8.924;2022-09-09T19:56:30;17.20;99.90
1992;DHT22;997;48.448;8.924;2022-09-09T19:58:58;17.00;99.90
1992;DHT22;997;48.448;8.924;2022-09-09T20:01:26;17.00;99.90
1992;DHT22;997;48.448;8.924;2022-09-09T20:03:54;16.80;99.90
1992;DHT22;997;48.448;8.924;2022-09-09T20:06:23;16.80;99.90
1992;DHT22;997;48.448;8.924;2022-09-09T20:08:51;16.70;99.90
1992;DHT22;997;48.448;8.924;2022-09-09T20:11:18;16.60;99.90
1992;DHT22;997;48.448;8.924;2022-09-09T20:13:45;16.50;99.90
1992;DHT22;997;48.448;8.924;2022-09-09T20:16:20;16.40;99.90
1992;DHT22;997;48.448;8.924;2022-09-09T20:18:51;16.40;99.90
1992;DHT22;997;48.448;8.924;2022-09-09T20:21:19;16.30;99.90
1992;DHT22;997;48.448;8.924;2022-09-09T20:23:47;16.30;99.90
1992;DHT22;997;48.448;8.924;2022-09-09T20:26:15;16.30;99.90
1992;DHT22;997;48.448;8.924;2022-09-09T20:28:49;16.30;99.90
1992;DHT22;997;48.448;8.924;2022-09-09T20:31:29;16.30;99.90
1992;DHT22;997;48.448;8.924;2022-09-09T20:33:56;16.40;99.90
1992;DHT22;997;48.448;8.924;2022-09-09T20:36:29;16.30;99.90
1992;DHT22;997;48.448;8.924;2022-09-09T20:38:57;16.30;99.90
1992;DHT22;997;48.448;8.924;2022-09-09T20:41:29;16.30;99.90
1992;DHT22;997;48.448;8.924;2022-09-09T20:44:00;16.20;99.90
1992;DHT22;997;48.448;8.924;2022-09-09T20:46:32;16.10;99.90
1992;DHT22;997;48.448;8.924;2022-09-09T20:48:58;16.10;99.90
1992;DHT22;997;48.448;8.924;2022-09-09T20:51:25;16.10;99.90
1992;DHT22;997;48.448;8.924;2022-09-09T20:53:58;16.10;99.90
1992;DHT22;997;48.448;8.924;2022-09-09T20:56:25;16.20;99.90
1992;DHT22;997;48.448;8.924;2022-09-09T20:58:52;16.10;99.90
1992;DHT22;997;48.448;8.924;2022-09-09T21:01:19;16.10;99.90
1992;DHT22;997;48.448;8.924;2022-09-09T21:03:46;16.10;99.90
1992;DHT22;997;48.448;8.924;2022-09-09T21:06:13;16.20;99.90
1992;DHT22;997;48.448;8.924;2022-09-09T21:08:42;16.30;99.90
1992;DHT22;997;48.448;8.924;2022-09-09T21:11:12;16.20;99.90